Time;durP1;ratioP1;P1;durP2;ratioP2;P2;SDS_P1;SDS_P2;PMS_P1;PMS_P2;Temp;Humidity;BMP_temperature;BMP_pressure;BME280_temperature;BME280_humidity;BME280_pressure;Samples;Min_cycle;Max_cycle;Signal;HPM_P1;HPM_P2
2022/10/09 00:03:18;;;;;;;;;;;;;;;;;;;;;
2022/10/09 02:54:54;;;;;;;13.40;5.20;;;;;;;7.93;100.00;96249.16;5052198;28;20221;-81
2022/10/09 02:57:19;;;;;;;9.00;4.87;;;;;;;7.84;100.00;96247.25;5026479;28;20217;-82
2022/10/09 02:59:45;;;;;;;7.30;5.07;;;;;;;7.90;100.00;96249.38;5028112;28;20193;-81
2022/10/09 03:02:10;;;;;;;18.33;5.97;;;;;;;7.85;100.00;96243.72;5041202;28;20533;-82
2022/10/09 03:04:35;;;;;;;12.93;6.30;;;;;;;7.78;100.00;96245.97;5054487;28;20217;-81
2022/10/09 03:07:01;;;;;;;7.13;4.83;;;;;;;7.76;100.00;96244.41;5019298;28;20194;-82
2022/10/09 03:09:27;;;;;;;9.27;5.37;;;;;;;7.74;100.00;96241.09;5023978;28;20216;-81
2022/10/09 03:11:53;;;;;;;11.87;5.73;;;;;;;7.68;100.00;96237.19;5036886;28;20232;-82
2022/10/09 03:14:18;;;;;;;11.70;5.80;;;;;;;7.67;100.00;96233.78;5040635;28;20254;-82
2022/10/09 03:16:43;;;;;;;7.37;5.13;;;;;;;7.65;100.00;96243.44;5037475;28;20178;-82
2022/10/09 03:19:09;;;;;;;9.27;5.73;;;;;;;7.66;100.00;96239.09;5038563;28;20711;-81
2022/10/09 03:21:34;;;;;;;11.10;5.60;;;;;;;7.69;100.00;96246.63;5017786;28;20571;-81
2022/10/09 03:23:59;;;;;;;11.03;6.03;;;;;;;7.62;100.00;96246.25;5033034;28;20209;-81
2022/10/09 03:26:26;;;;;;;13.40;5.80;;;;;;;7.73;100.00;96242.88;5022168;28;20245;-82
2022/10/09 03:28:52;;;;;;;13.60;6.20;;;;;;;7.75;100.00;96242.75;5043580;28;20209;-83
2022/10/09 03:31:20;;;;;;;11.17;5.80;;;;;;;7.76;100.00;96240.06;5035723;28;20633;-82
2022/10/09 03:33:45;;;;;;;10.73;5.97;;;;;;;7.73;100.00;96245.47;5049568;28;20184;-81
2022/10/09 03:36:10;;;;;;;11.10;5.80;;;;;;;7.63;100.00;96242.72;5033100;28;20629;-81
2022/10/09 03:38:36;;;;;;;7.43;5.37;;;;;;;7.49;100.00;96242.06;5034748;28;20263;-82
2022/10/09 03:41:02;;;;;;;8.87;5.13;;;;;;;7.44;100.00;96239.84;5034680;28;20184;-82
2022/10/09 03:43:28;;;;;;;9.80;4.93;;;;;;;7.43;100.00;96238.19;5044014;28;20287;-80
2022/10/09 03:45:53;;;;;;;10.00;5.33;;;;;;;7.41;100.00;96239.22;5029618;28;20902;-81
2022/10/09 03:48:19;;;;;;;9.00;5.47;;;;;;;7.34;100.00;96244.84;5033588;28;20743;-81
2022/10/09 03:50:44;;;;;;;6.50;5.30;;;;;;;7.31;100.00;96242.47;5053013;28;20195;-81
2022/10/09 03:53:10;;;;;;;9.97;6.20;;;;;;;7.31;100.00;96244.22;5054378;28;20197;-82
2022/10/09 03:55:36;;;;;;;11.77;6.10;;;;;;;7.28;100.00;96242.72;5025431;28;20179;-81
2022/10/09 03:58:02;;;;;;;14.57;5.73;;;;;;;7.33;100.00;96239.78;5064645;28;20232;-81
2022/10/09 04:00:27;;;;;;;9.20;5.60;;;;;;;7.24;100.00;96236.09;5039415;28;20242;-81
2022/10/09 04:02:52;;;;;;;13.07;5.67;;;;;;;7.21;100.00;96238.91;5071703;28;20184;-81
2022/10/09 04:05:18;;;;;;;10.77;5.60;;;;;;;7.18;100.00;96241.72;5038750;28;20221;-81
2022/10/09 04:07:44;;;;;;;8.03;5.70;;;;;;;7.17;100.00;96234.91;5053837;28;20590;-81
2022/10/09 04:10:09;;;;;;;7.73;5.37;;;;;;;7.17;100.00;96242.66;5050874;28;20193;-80
2022/10/09 04:12:35;;;;;;;11.30;6.00;;;;;;;7.16;100.00;96246.19;5047511;28;20701;-81
2022/10/09 04:15:00;;;;;;;9.03;5.13;;;;;;;7.14;100.00;96236.88;5026806;28;20645;-81
2022/10/09 04:17:25;;;;;;;13.67;5.17;;;;;;;7.18;100.00;96239.13;5040442;28;20236;-82
2022/10/09 04:19:51;;;;;;;10.20;5.73;;;;;;;7.19;100.00;96243.38;5036325;28;20239;-82
2022/10/09 04:22:16;;;;;;;8.03;5.33;;;;;;;7.15;100.00;96241.91;5038916;28;20182;-80
2022/10/09 04:24:41;;;;;;;13.70;5.90;;;;;;;7.15;100.00;96235.94;5023166;28;20229;-81
2022/10/09 04:27:07;;;;;;;11.23;5.23;;;;;;;7.20;100.00;96232.09;5028689;28;20189;-81
2022/10/09 04:29:32;;;;;;;11.70;6.03;;;;;;;7.21;100.00;96227.75;5036628;28;20638;-81
2022/10/09 04:31:57;;;;;;;8.47;5.13;;;;;;;7.20;100.00;96228.69;5047555;28;20190;-81
2022/10/09 04:34:23;;;;;;;10.13;5.50;;;;;;;7.18;100.00;96217.66;5039093;28;20185;-81
2022/10/09 04:36:48;;;;;;;8.63;5.00;;;;;;;7.16;100.00;96220.34;5036719;28;20185;-81
2022/10/09 04:39:13;;;;;;;9.83;5.57;;;;;;;7.15;100.00;96226.41;5050414;28;20205;-81
2022/10/09 04:41:38;;;;;;;11.07;5.57;;;;;;;7.15;100.00;96229.00;5065666;28;20213;-81
2022/10/09 04:44:04;;;;;;;10.20;6.00;;;;;;;7.18;100.00;96223.63;5024532;28;20206;-80
2022/10/09 04:46:29;;;;;;;10.93;5.57;;;;;;;7.14;100.00;96231.69;5035680;28;20190;-81
2022/10/09 04:48:55;;;;;;;12.87;5.70;;;;;;;7.16;100.00;96222.94;5039047;28;20240;-80
2022/10/09 04:51:20;;;;;;;9.87;5.77;;;;;;;7.20;100.00;96223.53;5054226;28;20203;-80
2022/10/09 04:53:46;;;;;;;9.80;5.10;;;;;;;7.21;100.00;96220.81;5042540;28;20521;-80
2022/10/09 04:56:14;;;;;;;13.47;5.30;;;;;;;7.17;100.00;96216.81;5026995;28;20189;-80
2022/10/09 04:58:40;;;;;;;10.97;5.33;;;;;;;7.21;100.00;96220.00;5029779;28;20203;-81
2022/10/09 05:01:11;;;;;;;10.97;5.20;;;;;;;7.17;100.00;96214.25;5018209;28;20273;-80
2022/10/09 05:03:36;;;;;;;7.70;5.23;;;;;;;7.15;100.00;96220.44;5031982;28;20174;-81
2022/10/09 05:06:07;;;;;;;7.20;5.27;;;;;;;7.19;100.00;96214.94;5035783;28;20219;-81
2022/10/09 05:08:33;;;;;;;9.87;6.10;;;;;;;7.15;100.00;96220.44;5023390;28;20915;-81
2022/10/09 05:11:00;;;;;;;10.07;5.23;;;;;;;7.17;100.00;96227.16;5043877;28;20196;-81
2022/10/09 05:13:28;;;;;;;15.03;5.97;;;;;;;7.11;100.00;96214.69;5045548;28;20186;-80
2022/10/09 05:15:53;;;;;;;8.63;5.80;;;;;;;7.12;100.00;96221.50;5046217;28;20178;-81
2022/10/09 05:56:58;;;;;;;11.27;4.70;;;;;;;7.19;100.00;96206.38;5043193;28;20269;-82
2022/10/09 05:59:24;;;;;;;9.53;5.37;;;;;;;7.20;100.00;96211.44;5012611;28;20260;-81
2022/10/09 06:01:50;;;;;;;8.30;4.90;;;;;;;7.29;100.00;96212.53;5025695;28;20679;-80
2022/10/09 06:04:24;;;;;;;6.77;4.50;;;;;;;7.26;100.00;96210.19;5015922;28;20217;-82
2022/10/09 06:06:50;;;;;;;11.70;6.00;;;;;;;7.28;100.00;96210.88;5033753;28;20277;-83
2022/10/09 06:09:32;;;;;;;9.60;6.03;;;;;;;7.33;100.00;96203.59;5060019;23;20241;-81
2022/10/09 06:12:46;;;;;;;8.47;5.57;;;;;;;7.44;100.00;96216.59;5027282;28;20558;-83
2022/10/09 09:42:55;;;;;;;5.07;3.30;;;;;;;12.21;69.13;96183.13;4180580;23;20318;-82
2022/10/09 09:45:22;;;;;;;4.77;2.80;;;;;;;12.20;70.11;96176.28;4983836;28;20219;-81
2022/10/09 09:47:52;;;;;;;5.77;3.40;;;;;;;12.19;69.24;96179.81;4982991;28;20214;-82
2022/10/09 09:50:34;;;;;;;5.20;3.43;;;;;;;12.26;68.35;96182.66;4980969;28;20190;-83
2022/10/09 09:53:13;;;;;;;8.33;3.17;;;;;;;12.39;68.96;96175.38;4976698;28;20186;-82
2022/10/09 09:55:38;;;;;;;7.43;3.03;;;;;;;12.47;67.68;96172.88;5010765;28;20619;-83
2022/10/09 09:58:06;;;;;;;4.57;2.80;;;;;;;12.63;67.22;96170.47;4979805;28;20210;-83
2022/10/09 10:00:31;;;;;;;4.10;2.67;;;;;;;12.53;67.33;96164.47;4992251;28;20227;-81
2022/10/09 10:03:11;;;;;;;3.87;2.50;;;;;;;12.76;66.07;96160.50;4979460;28;20219;-83
2022/10/09 10:05:38;;;;;;;6.27;2.63;;;;;;;12.85;65.11;96155.38;4991560;28;20757;-84
2022/10/09 10:08:22;;;;;;;3.37;2.30;;;;;;;12.86;63.77;96154.41;4991694;28;20333;-81
2022/10/09 10:10:49;;;;;;;4.00;2.73;;;;;;;12.93;63.28;96145.06;4997979;28;20198;-81
2022/10/09 10:13:17;;;;;;;5.27;2.50;;;;;;;13.03;63.59;96148.41;4985132;28;20285;-84
2022/10/09 10:15:54;;;;;;;3.90;2.80;;;;;;;13.07;63.68;96141.91;4998400;28;20183;-83
2022/10/09 10:18:21;;;;;;;3.77;2.37;;;;;;;13.26;63.07;96146.22;4995430;28;20230;-84
2022/10/09 10:21:01;;;;;;;5.90;3.03;;;;;;;13.31;63.19;96143.97;4999820;28;20187;-83
2022/10/09 10:23:41;;;;;;;4.40;2.60;;;;;;;13.32;63.11;96136.00;5024399;28;20179;-83
2022/10/09 10:26:20;;;;;;;3.60;2.50;;;;;;;13.40;61.85;96137.84;4983074;28;20333;-82
2022/10/09 10:28:50;;;;;;;4.13;2.20;;;;;;;13.35;61.12;96136.69;4987772;28;20206;-83
2022/10/09 10:31:27;;;;;;;2.83;2.50;;;;;;;13.34;60.53;96128.03;4982407;28;20188;-82
2022/10/09 10:33:54;;;;;;;5.50;2.30;;;;;;;13.40;60.53;96130.03;5000551;28;20182;-83
2022/10/09 10:36:19;;;;;;;4.43;2.33;;;;;;;13.41;60.51;96129.03;5009930;28;20219;-82
2022/10/09 10:38:53;;;;;;;5.50;2.30;;;;;;;13.38;58.56;96121.53;4983377;28;20203;-82
2022/10/09 10:41:29;;;;;;;4.13;2.10;;;;;;;13.37;58.63;96122.50;4999089;28;20210;-84
2022/10/09 10:44:06;;;;;;;4.60;2.40;;;;;;;13.51;58.69;96118.53;5002007;28;20187;-83
2022/10/09 10:46:43;;;;;;;3.90;2.07;;;;;;;13.59;59.27;96116.78;4977401;28;20211;-83
2022/10/09 10:49:10;;;;;;;2.87;1.90;;;;;;;13.70;58.58;96102.69;4996660;28;20230;-83
2022/10/09 10:51:51;;;;;;;4.23;1.80;;;;;;;13.84;59.94;96102.13;4982202;28;20195;-82
2022/10/09 10:54:41;;;;;;;4.00;1.77;;;;;;;13.81;57.34;96099.81;5015758;28;20250;-80
2022/10/09 10:57:28;;;;;;;2.50;1.90;;;;;;;13.92;58.61;96101.34;4980881;28;20881;-80
2022/10/09 11:00:06;;;;;;;4.50;2.07;;;;;;;14.00;57.92;96100.59;5014996;28;20187;-83
2022/10/09 11:02:44;;;;;;;3.20;1.83;;;;;;;14.15;58.45;96101.66;4997638;28;20234;-84
2022/10/09 11:05:35;;;;;;;5.03;2.03;;;;;;;14.15;57.22;96094.63;4977374;28;20706;-83
2022/10/09 11:08:10;;;;;;;7.43;1.90;;;;;;;14.01;57.33;96092.59;4980023;28;20719;-82
2022/10/09 11:10:53;;;;;;;6.00;2.17;;;;;;;14.15;56.75;96096.44;5018051;28;20197;-83
2022/10/09 11:13:26;;;;;;;3.97;1.83;;;;;;;14.24;56.15;96089.44;4980863;28;20222;-83
2022/10/09 11:16:05;;;;;;;4.23;2.33;;;;;;;14.19;54.09;96097.75;4979816;28;20183;-83
2022/10/09 11:19:05;;;;;;;3.87;1.67;;;;;;;14.12;54.96;96091.50;4979370;28;20241;-82
2022/10/09 11:21:49;;;;;;;4.70;1.57;;;;;;;14.17;55.04;96084.84;5000511;28;20194;-83
2022/10/09 11:24:52;;;;;;;2.50;1.70;;;;;;;14.17;55.07;96086.63;4995928;28;20289;-81
2022/10/09 11:27:24;;;;;;;3.00;1.60;;;;;;;14.09;54.70;96081.38;4914096;29;20202;-83
2022/10/09 11:29:58;;;;;;;3.17;1.67;;;;;;;14.09;54.21;96081.38;4883871;29;20198;-81
2022/10/09 11:32:35;;;;;;;3.93;1.50;;;;;;;14.13;54.72;96075.69;4898670;29;20206;-82
2022/10/09 11:35:11;;;;;;;2.97;1.67;;;;;;;14.23;54.26;96072.97;4896793;29;20227;-82
2022/10/09 11:37:39;;;;;;;3.27;1.63;;;;;;;14.20;54.65;96075.88;4881991;29;20226;-83
2022/10/09 11:40:13;;;;;;;2.50;1.60;;;;;;;14.34;54.93;96069.22;4883321;29;20198;-82
2022/10/09 11:42:39;;;;;;;3.33;1.73;;;;;;;14.48;55.10;96065.22;4911890;29;20227;-83
2022/10/09 11:45:18;;;;;;;3.13;2.43;;;;;;;14.43;54.93;96053.41;4896596;29;20325;-81
2022/10/09 11:47:54;;;;;;;6.33;2.20;;;;;;;14.63;54.38;96056.59;4911846;29;20225;-81
2022/10/09 11:50:33;;;;;;;3.17;1.73;;;;;;;14.85;53.85;96049.13;4891597;29;20329;-81
2022/10/09 11:53:03;;;;;;;2.60;1.93;;;;;;;14.81;53.01;96051.25;4884654;29;20194;-83
2022/10/09 11:55:30;;;;;;;5.83;2.57;;;;;;;14.81;53.31;96051.25;4898486;29;20194;-82
2022/10/09 11:58:17;;;;;;;4.80;1.87;;;;;;;14.82;52.21;96044.22;4927275;28;20599;-80
2022/10/09 12:00:43;;;;;;;3.60;1.60;;;;;;;14.82;53.61;96045.03;4976178;28;20183;-83
2022/10/09 12:03:32;;;;;;;4.03;1.70;;;;;;;14.94;54.12;96030.69;4997105;28;20241;-83
2022/10/09 12:06:12;;;;;;;2.83;1.57;;;;;;;14.99;53.28;96028.38;4989913;28;20273;-82
2022/10/09 12:08:52;;;;;;;4.67;1.73;;;;;;;15.05;51.83;96028.72;4979275;28;20361;-83
2022/10/09 12:11:18;;;;;;;3.73;1.67;;;;;;;14.97;51.56;96025.13;5011729;28;20514;-82
2022/10/09 12:13:47;;;;;;;4.07;2.10;;;;;;;15.24;52.76;96023.16;4996332;28;20197;-83
2022/10/09 12:16:36;;;;;;;3.07;1.27;;;;;;;15.35;52.66;96014.13;4982251;28;20191;-82
2022/10/09 12:19:22;;;;;;;5.43;1.50;;;;;;;15.24;51.60;96017.91;5003556;28;20560;-82
2022/10/09 12:22:04;;;;;;;4.68;1.77;;;;;;;15.43;52.07;96008.88;4997331;28;20236;-82
2022/10/09 12:24:37;;;;;;;4.27;1.37;;;;;;;15.28;51.50;96004.34;4978733;28;20250;-84
2022/10/09 12:27:04;;;;;;;3.43;1.30;;;;;;;15.35;51.94;95999.25;5001497;28;20202;-84
2022/10/09 12:29:33;;;;;;;2.40;1.67;;;;;;;15.28;51.16;96001.72;5015105;28;20241;-83
2022/10/09 12:32:04;;;;;;;3.28;1.80;;;;;;;15.45;50.92;95997.25;5017442;28;20243;-83
2022/10/09 12:34:35;;;;;;;4.27;1.60;;;;;;;15.31;50.72;95995.34;5000779;28;20537;-82
2022/10/09 12:37:13;;;;;;;6.07;1.63;;;;;;;15.39;51.30;95984.88;4979904;28;20195;-82
2022/10/09 12:39:38;;;;;;;5.03;1.98;;;;;;;15.44;50.52;95986.97;5005747;28;20290;-81
2022/10/09 12:42:04;;;;;;;3.77;3.00;;;;;;;15.35;50.27;95980.94;5011301;28;20203;-82
2022/10/09 12:44:32;;;;;;;3.55;2.00;;;;;;;15.31;50.69;95987.50;4982988;28;20218;-82
2022/10/09 12:47:07;;;;;;;4.60;1.70;;;;;;;15.29;50.44;95971.97;4982581;28;20651;-81
2022/10/09 12:49:33;;;;;;;4.57;1.70;;;;;;;15.29;50.15;95973.78;4994048;28;20190;-80
2022/10/09 12:52:00;;;;;;;3.28;1.55;;;;;;;15.16;50.81;95965.59;5023825;28;20195;-80
2022/10/09 12:54:27;;;;;;;2.92;1.50;;;;;;;15.56;51.26;95972.56;4998988;28;20229;-82
2022/10/09 12:56:54;;;;;;;2.47;1.50;;;;;;;15.59;50.44;95970.41;5026992;28;20213;-81
2022/10/09 12:59:21;;;;;;;3.30;1.48;;;;;;;15.63;50.29;95965.69;4998703;28;20207;-81
2022/10/09 13:01:46;;;;;;;4.60;1.80;;;;;;;15.56;50.01;95967.31;4996734;28;20199;-81
2022/10/09 13:04:41;;;;;;;3.50;1.73;;;;;;;15.54;50.06;95957.00;4994723;28;20195;-84
2022/10/09 13:07:19;;;;;;;5.63;1.80;;;;;;;15.48;49.91;95960.31;4901950;29;20206;-80
2022/10/09 13:09:44;;;;;;;2.33;1.50;;;;;;;15.58;50.27;95953.09;4917791;29;20202;-83
2022/10/09 13:12:15;;;;;;;4.30;1.50;;;;;;;15.73;51.18;95953.22;4902255;29;20206;-84
2022/10/09 13:14:45;;;;;;;3.78;2.30;;;;;;;15.67;50.78;95955.72;4885572;29;20202;-83
2022/10/09 13:17:31;;;;;;;4.22;1.55;;;;;;;15.84;49.96;95950.22;4886340;29;20302;-84
2022/10/09 13:19:59;;;;;;;3.78;1.40;;;;;;;15.75;49.71;95950.44;4901415;29;20214;-83
2022/10/09 13:22:26;;;;;;;4.90;1.90;;;;;;;15.71;50.01;95941.28;4900233;29;20274;-83
2022/10/09 13:24:53;;;;;;;1.55;1.20;;;;;;;15.66;48.71;95941.00;4883565;29;20652;-82
2022/10/09 13:27:20;;;;;;;3.08;1.50;;;;;;;15.83;49.87;95937.31;4900777;29;20230;-81
2022/10/09 13:29:46;;;;;;;3.05;1.70;;;;;;;15.82;49.42;95938.31;4900668;29;20670;-82
2022/10/09 13:32:13;;;;;;;3.13;1.55;;;;;;;15.98;49.71;95930.34;4900405;29;20293;-83
2022/10/09 13:34:38;;;;;;;2.78;1.40;;;;;;;15.88;49.57;95929.75;4899412;29;20282;-83
2022/10/09 13:37:04;;;;;;;3.08;1.42;;;;;;;15.69;48.63;95925.75;4883972;29;20261;-82
2022/10/09 13:39:29;;;;;;;4.10;1.63;;;;;;;15.70;48.59;95921.31;4901756;29;20670;-83
2022/10/09 13:41:56;;;;;;;1.70;1.30;;;;;;;15.57;49.45;95916.59;4900041;29;20227;-85
2022/10/09 13:44:22;;;;;;;2.72;1.42;;;;;;;15.52;49.27;95916.28;4982270;28;20203;-82
2022/10/09 13:46:47;;;;;;;2.90;1.50;;;;;;;15.76;48.62;95921.47;5011230;28;20277;-83
2022/10/09 13:49:12;;;;;;;3.95;1.27;;;;;;;15.69;48.76;95914.47;5025297;28;20202;-83
2022/10/09 13:51:37;;;;;;;2.60;1.40;;;;;;;15.66;49.04;95910.38;4989040;28;20187;-82
2022/10/09 13:54:03;;;;;;;5.68;1.48;;;;;;;15.77;49.17;95909.19;4991358;28;20211;-82
2022/10/09 13:56:28;;;;;;;5.55;1.60;;;;;;;15.79;49.21;95899.34;4996798;28;20189;-83
2022/10/09 13:58:53;;;;;;;2.15;1.45;;;;;;;15.58;49.56;95905.97;4996391;28;20203;-84
2022/10/09 14:01:19;;;;;;;5.82;1.95;;;;;;;15.80;49.20;95893.13;4995501;28;20187;-82
2022/10/09 14:03:44;;;;;;;3.30;1.40;;;;;;;15.65;50.03;95892.22;5002546;28;20221;-80
2022/10/09 14:06:10;;;;;;;3.90;1.40;;;;;;;15.74;50.03;95885.97;5018129;28;20211;-82
2022/10/09 14:08:35;;;;;;;3.00;1.48;;;;;;;15.90;49.72;95890.28;4998597;28;20358;-82
2022/10/09 14:11:01;;;;;;;4.10;1.35;;;;;;;16.00;49.84;95886.50;4982008;28;20643;-82
2022/10/09 14:13:27;;;;;;;3.90;1.48;;;;;;;15.87;49.11;95875.75;4978909;28;20218;-81
2022/10/09 14:15:52;;;;;;;2.67;1.45;;;;;;;15.97;49.63;95881.56;4979578;28;20286;-81
2022/10/09 14:18:18;;;;;;;3.88;1.52;;;;;;;15.86;48.66;95874.13;4993293;28;20215;-82
2022/10/09 14:20:44;;;;;;;3.50;1.63;;;;;;;15.91;49.49;95881.47;4987547;28;20175;-83
2022/10/09 14:23:10;;;;;;;4.35;1.33;;;;;;;15.84;48.98;95879.53;5005630;28;20276;-83
2022/10/09 14:25:35;;;;;;;4.35;1.30;;;;;;;15.73;49.55;95869.44;5001923;28;20234;-83
2022/10/09 14:28:00;;;;;;;2.53;1.35;;;;;;;15.66;49.15;95863.25;4983451;28;20203;-81
2022/10/09 14:30:26;;;;;;;3.05;1.42;;;;;;;15.76;50.22;95857.81;4967920;28;20249;-83
2022/10/09 14:32:51;;;;;;;1.55;1.13;;;;;;;15.85;50.55;95854.16;4980849;28;20639;-84
2022/10/09 14:35:16;;;;;;;4.13;1.55;;;;;;;15.65;50.39;95852.97;4988292;28;20195;-81
2022/10/09 14:37:42;;;;;;;2.88;1.38;;;;;;;15.81;49.89;95845.84;5003422;28;20211;-83
2022/10/09 14:40:08;;;;;;;2.45;1.50;;;;;;;15.70;49.97;95854.06;4996756;28;20198;-82
2022/10/09 14:42:35;;;;;;;2.38;1.50;;;;;;;15.79;50.34;95852.22;4970699;28;20200;-83
2022/10/09 14:45:00;;;;;;;3.08;1.35;;;;;;;15.81;49.95;95845.84;4983654;28;20208;-82
2022/10/09 14:47:26;;;;;;;3.92;1.60;;;;;;;15.66;49.60;95838.88;4999089;28;20262;-82
2022/10/09 14:49:51;;;;;;;6.60;1.95;;;;;;;15.52;50.36;95841.19;4994443;28;20315;-81
2022/10/09 14:52:17;;;;;;;1.83;1.35;;;;;;;15.50;50.26;95842.38;4990223;28;20245;-83
2022/10/09 14:54:42;;;;;;;1.88;1.65;;;;;;;15.51;50.25;95834.34;4992393;28;20810;-82
2022/10/09 14:57:07;;;;;;;3.97;1.40;;;;;;;15.49;50.84;95835.50;4993721;28;20233;-81
2022/10/09 14:59:33;;;;;;;6.80;1.55;;;;;;;15.42;50.79;95835.34;4996112;28;20237;-82
2022/10/09 15:01:58;;;;;;;3.47;1.52;;;;;;;15.33;51.85;95832.94;4991914;28;20183;-83
2022/10/09 15:04:24;;;;;;;3.55;1.42;;;;;;;15.29;52.14;95825.44;4990566;28;20273;-81
2022/10/09 15:06:50;;;;;;;1.88;1.30;;;;;;;15.24;51.96;95824.31;4971786;28;20192;-81
2022/10/09 15:09:15;;;;;;;3.85;1.60;;;;;;;15.32;52.12;95821.66;4984378;28;20810;-81
2022/10/09 15:11:41;;;;;;;3.25;1.70;;;;;;;15.20;51.72;95820.41;4976436;28;20180;-81
2022/10/09 15:14:08;;;;;;;1.75;1.40;;;;;;;15.16;51.38;95816.50;5012332;28;20175;-81
2022/10/09 15:16:34;;;;;;;4.32;1.67;;;;;;;15.08;52.21;95816.53;4989310;28;20738;-80
2022/10/09 15:18:59;;;;;;;6.47;2.00;;;;;;;15.04;53.06;95813.44;4992631;28;20216;-80
2022/10/09 15:21:28;;;;;;;2.38;1.60;;;;;;;14.99;53.30;95808.69;5001575;28;20179;-82
2022/10/09 15:23:55;;;;;;;3.45;1.60;;;;;;;15.06;53.61;95806.22;4992280;28;20203;-81
2022/10/09 15:26:20;;;;;;;3.15;1.67;;;;;;;14.95;53.56;95804.00;4992004;28;20199;-81
2022/10/09 15:28:45;;;;;;;5.18;1.70;;;;;;;14.94;53.75;95800.56;4979260;28;20280;-80
2022/10/09 15:31:31;;;;;;;3.15;1.42;;;;;;;14.92;54.27;95802.50;4983316;28;20538;-83
2022/10/09 15:34:00;;;;;;;3.80;1.80;;;;;;;14.82;54.80;95806.28;4991920;28;20924;-82
2022/10/09 15:36:25;;;;;;;5.60;1.58;;;;;;;14.78;54.64;95800.59;4988873;28;20214;-82
2022/10/09 15:42:07;;;;;;;5.35;1.70;;;;;;;14.67;55.38;95796.53;4986967;28;20294;-81
2022/10/09 15:59:41;;;;;;;;;;;;;;;;;;;;;
2022/10/09 16:20:27;;;;;;;4.67;2.37;;;;;;;13.42;61.70;95768.06;4696244;30;20849;-82
2022/10/09 16:23:36;;;;;;;4.13;2.30;;;;;;;13.38;62.14;95768.56;4755751;30;20398;-82
2022/10/09 16:30:27;;;;;;;3.43;2.90;;;;;;;13.07;63.76;95758.66;4718257;30;20220;-82
2022/10/09 16:44:06;;;;;;;;;;;;;;;;;;;;;
2022/10/09 16:47:30;;;;;;;;;;;;;;;;;;;;;
2022/10/09 16:57:21;;;;;;;5.07;3.17;;;;;;;12.09;69.99;95762.50;4698839;30;20206;-80
2022/10/09 17:10:19;;;;;;;4.53;2.40;;;;;;;11.83;71.60;95768.47;4731367;30;20216;-81
2022/10/09 17:16:43;;;;;;;3.77;2.60;;;;;;;11.60;73.18;95768.09;4730791;30;20202;-83
2022/10/09 19:14:10;;;;;;;6.50;4.73;;;;;;;10.29;88.32;95723.38;4852213;29;20267;-83
